createdAt,value
2018-08-22T00:04:32.889Z,10.72
2018-08-22T00:10:27.931Z,10.81
2018-08-22T00:16:22.930Z,11.45
2018-08-22T00:22:17.908Z,16.3
2018-08-22T00:28:12.943Z,12.29
2018-08-22T00:34:07.914Z,12.1
2018-08-22T00:40:02.928Z,11.66
2018-08-22T00:45:57.939Z,12.91
2018-08-22T00:51:52.941Z,14.39
2018-08-22T00:57:47.951Z,13.46
2018-08-22T01:03:42.950Z,11.06
2018-08-22T01:09:37.957Z,13.19
2018-08-22T01:15:32.949Z,15.22
2018-08-22T01:21:27.938Z,10.84
2018-08-22T01:27:22.963Z,13.93
2018-08-22T01:33:17.943Z,11.5
2018-08-22T01:39:12.952Z,12.95
2018-08-22T01:45:07.949Z,12.17
2018-08-22T01:51:02.980Z,16.02
2018-08-22T01:56:58.008Z,13.85
2018-08-22T02:02:52.986Z,12.45
2018-08-22T02:08:47.990Z,11.63
2018-08-22T02:14:42.980Z,11.47
2018-08-22T02:20:38.032Z,14.79
2018-08-22T02:26:32.991Z,12.11
2018-08-22T02:32:28.000Z,13.78
2018-08-22T02:38:22.988Z,17.31
2018-08-22T02:44:18.004Z,15.37
2018-08-22T02:50:13.036Z,14.77
2018-08-22T02:56:08.002Z,14.33
2018-08-22T03:02:03.016Z,14.06
2018-08-22T03:07:58.014Z,16.52
2018-08-22T03:13:53.028Z,13.18
2018-08-22T03:19:48.010Z,13.66
2018-08-22T03:25:43.026Z,14.7
2018-08-22T03:31:38.046Z,14.89
2018-08-22T03:37:33.024Z,12.61
2018-08-22T03:43:28.028Z,14.83
2018-08-22T03:49:23.022Z,15.08
2018-08-22T03:55:18.045Z,13.39
2018-08-22T04:01:13.060Z,15.03
2018-08-22T04:07:08.083Z,12.95
2018-08-22T04:13:03.092Z,24.52
2018-08-22T04:18:58.062Z,16.96
2018-08-22T04:24:53.079Z,12.75
2018-08-22T04:30:48.116Z,13.47
2018-08-22T04:36:43.128Z,12.7
2018-08-22T04:42:38.069Z,12.97
2018-08-22T04:48:33.098Z,14.01
2018-08-22T04:54:28.066Z,15.47
2018-08-22T05:00:23.106Z,23.6
2018-08-22T05:06:18.100Z,57.29
2018-08-22T05:12:13.069Z,33.07
2018-08-22T05:18:08.096Z,45.09
2018-08-22T05:24:03.153Z,27.53
2018-08-22T05:29:58.168Z,21.11
2018-08-22T05:35:53.155Z,21.33
2018-08-22T05:41:48.088Z,14.91
2018-08-22T05:47:43.094Z,18.72
2018-08-22T05:53:38.107Z,13.64
2018-08-22T05:59:33.164Z,15.03
2018-08-22T06:05:28.118Z,15.05
2018-08-22T06:11:23.191Z,14.18
2018-08-22T06:17:18.123Z,13.64
2018-08-22T06:23:13.119Z,14.4
2018-08-22T06:29:08.156Z,14.94
2018-08-22T06:35:03.216Z,16.39
2018-08-22T06:40:58.152Z,13.42
2018-08-22T06:46:53.161Z,13.83
2018-08-22T06:52:48.177Z,12.67
2018-08-22T06:58:43.146Z,16.01
2018-08-22T07:04:38.164Z,11.41
2018-08-22T07:10:33.156Z,11.37
2018-08-22T07:16:28.167Z,13.77
2018-08-22T07:22:23.178Z,12.37
2018-08-22T07:28:18.216Z,13.99
2018-08-22T07:34:13.180Z,12.56
2018-08-22T07:40:08.192Z,11.46
2018-08-22T07:46:03.232Z,10.37
2018-08-22T07:51:58.204Z,10.12
2018-08-22T07:57:53.234Z,9.35
2018-08-22T08:03:48.195Z,10.53
2018-08-22T08:09:43.214Z,9.15
2018-08-22T08:15:38.198Z,10.97
2018-08-22T08:21:33.208Z,9.53
2018-08-22T08:27:28.199Z,10.34
2018-08-22T08:33:23.263Z,10.1
2018-08-22T08:39:18.211Z,10.47
2018-08-22T08:45:13.235Z,10.89
2018-08-22T08:51:08.224Z,7.97
2018-08-22T08:57:03.223Z,11.71
2018-08-22T09:02:58.254Z,10.1
2018-08-22T09:08:53.338Z,7.86
2018-08-22T09:14:48.227Z,8.48
2018-08-22T09:20:43.249Z,11.62
2018-08-22T09:26:38.234Z,6.76
2018-08-22T09:32:33.274Z,7.37
2018-08-22T09:38:28.236Z,8.13
2018-08-22T09:44:23.259Z,6.24
2018-08-22T09:50:18.278Z,9.55
2018-08-22T09:56:13.261Z,6.83
2018-08-22T10:02:08.288Z,8.31
2018-08-22T10:08:03.296Z,6.61
2018-08-22T10:13:58.263Z,7.57
2018-08-22T10:19:53.270Z,8.04
2018-08-22T10:25:48.273Z,12.61
2018-08-22T10:31:43.337Z,27.26
2018-08-22T10:37:38.313Z,14.9
2018-08-22T10:43:33.283Z,10.94
2018-08-22T10:49:28.361Z,8.07
2018-08-22T10:55:23.297Z,7.85
2018-08-22T11:01:18.295Z,8.92
2018-08-22T11:07:13.297Z,7.45
2018-08-22T11:13:08.308Z,9.34
2018-08-22T11:19:03.329Z,8.35
2018-08-22T11:24:58.305Z,6.56
2018-08-22T11:30:53.329Z,11.93
2018-08-22T11:36:48.356Z,9.77
2018-08-22T11:42:43.325Z,7.25
2018-08-22T11:48:38.353Z,5.84
2018-08-22T11:54:33.318Z,6.19
2018-08-22T12:00:28.342Z,5.63
2018-08-22T12:06:23.381Z,7.32
2018-08-22T12:12:18.371Z,10.55
2018-08-22T12:18:13.354Z,6.6
2018-08-22T12:24:08.361Z,7.1
2018-08-22T12:30:03.352Z,8.65
2018-08-22T12:35:58.359Z,12.04
2018-08-22T12:41:53.360Z,12.67
2018-08-22T12:47:48.418Z,9.2
2018-08-22T12:53:43.455Z,13.38
2018-08-22T12:59:38.421Z,10.28
2018-08-22T13:05:33.391Z,11.2
2018-08-22T13:11:28.449Z,10.62
2018-08-22T13:17:23.381Z,7.86
2018-08-22T13:23:18.399Z,7.36
2018-08-22T13:29:13.439Z,6.92
2018-08-22T13:35:08.385Z,7.83
2018-08-22T13:41:03.409Z,10.29
2018-08-22T13:46:58.421Z,8.01
2018-08-22T13:52:53.412Z,9.55
2018-08-22T13:58:48.408Z,12.29
2018-08-22T14:04:43.419Z,11.4
2018-08-22T14:10:38.412Z,13.64
2018-08-22T14:16:33.423Z,11.74
2018-08-22T14:22:28.450Z,10.66
2018-08-22T14:28:23.460Z,12.15
2018-08-22T14:34:18.429Z,12.39
2018-08-22T14:40:13.455Z,12.53
2018-08-22T14:46:08.435Z,11.2
2018-08-22T14:52:03.440Z,24.82
2018-08-22T14:57:58.469Z,13.27
2018-08-22T15:03:53.453Z,9.63
2018-08-22T15:09:48.477Z,10.5
2018-08-22T15:15:43.493Z,11.78
2018-08-22T15:21:38.468Z,11.88
2018-08-22T15:27:33.486Z,21.65
2018-08-22T15:33:28.466Z,41.39
2018-08-22T15:39:23.458Z,9.99
2018-08-22T15:45:18.480Z,11.91
2018-08-22T15:51:13.469Z,10.17
2018-08-22T15:57:08.488Z,14.25
2018-08-22T16:03:03.485Z,11.89
2018-08-22T16:08:58.492Z,9.43
2018-08-22T16:14:53.534Z,12.67
2018-08-22T16:20:48.537Z,11.89
2018-08-22T16:26:43.492Z,11.13
2018-08-22T16:32:38.552Z,10.88
2018-08-22T16:38:33.515Z,11.38
2018-08-22T16:44:28.551Z,10.9
2018-08-22T16:50:23.532Z,13
2018-08-22T16:56:18.546Z,13.38
2018-08-22T17:02:13.516Z,11.06
2018-08-22T17:08:08.523Z,16.21
2018-08-22T17:14:03.545Z,14.51
2018-08-22T17:19:58.530Z,15.8
2018-08-22T17:25:53.528Z,15.32
2018-08-22T17:31:48.529Z,12.99
2018-08-22T17:37:43.553Z,13.47
2018-08-22T17:43:38.550Z,13.51
2018-08-22T17:49:33.590Z,14.71
2018-08-22T17:55:28.586Z,16.18
2018-08-22T18:01:23.592Z,15.94
2018-08-22T18:07:18.590Z,16.87
2018-08-22T18:13:13.602Z,14.27
2018-08-22T18:19:08.573Z,14.76
2018-08-22T18:25:03.579Z,16.51
2018-08-22T18:30:58.611Z,16.24
2018-08-22T18:36:53.591Z,18.06
2018-08-22T18:42:48.611Z,14.14
2018-08-22T18:48:43.582Z,20.34
2018-08-22T18:54:38.580Z,17.23
2018-08-22T19:00:33.780Z,22.12
2018-08-22T19:06:28.593Z,25.36
2018-08-22T19:12:23.643Z,17.46
2018-08-22T19:18:18.625Z,19.52
2018-08-22T19:24:13.631Z,19.99
2018-08-22T19:30:08.672Z,21.92
2018-08-22T19:36:03.745Z,19.03
2018-08-22T19:41:58.627Z,21.85
2018-08-22T19:47:53.640Z,24.05
2018-08-22T19:53:48.620Z,21.6
2018-08-22T19:59:43.640Z,22.03
2018-08-22T20:05:38.649Z,22.34
2018-08-22T20:11:33.664Z,19.66
2018-08-22T20:17:28.642Z,22.16
2018-08-22T20:23:23.760Z,18.77
2018-08-22T20:29:18.710Z,21.34
2018-08-22T20:35:13.697Z,19.09
2018-08-22T20:41:08.657Z,18.63
2018-08-22T20:47:03.702Z,21.7
2018-08-22T20:52:58.674Z,22.19
2018-08-22T20:58:53.691Z,20.7
2018-08-22T21:04:48.699Z,22.27
2018-08-22T21:10:43.690Z,20.98
2018-08-22T21:16:38.682Z,43.84
2018-08-22T21:22:33.681Z,30.39
2018-08-22T21:28:28.729Z,48.06
2018-08-22T21:34:23.721Z,50.64
2018-08-22T21:40:18.709Z,64.98
2018-08-22T21:46:13.704Z,32.8
2018-08-22T21:52:08.755Z,29.33
2018-08-22T21:58:03.737Z,24.48
2018-08-22T22:03:58.738Z,28.02
2018-08-22T22:09:53.721Z,27.12
2018-08-22T22:15:48.712Z,22.57
2018-08-22T22:21:43.759Z,24.38
2018-08-22T22:27:38.729Z,24.45
2018-08-22T22:33:33.734Z,26.99
2018-08-22T22:39:28.733Z,21.21
2018-08-22T22:45:23.744Z,25.05
2018-08-22T22:51:18.783Z,18.61
2018-08-22T22:57:13.725Z,21.01
2018-08-22T23:03:08.763Z,18.26
2018-08-22T23:09:03.799Z,23.77
2018-08-22T23:14:58.738Z,19.88
2018-08-22T23:20:53.749Z,27.63
2018-08-22T23:26:48.784Z,19.13
2018-08-22T23:32:43.745Z,21.75
2018-08-22T23:38:38.794Z,21.04
2018-08-22T23:44:33.799Z,21.55
2018-08-22T23:50:28.769Z,25.49
2018-08-22T23:56:23.779Z,15.82
